PDT,Max TemperatureF,Mean TemperatureF,Min TemperatureF,Max Dew PointF,MeanDew PointF,Min DewpointF,Max Humidity, Mean Humidity, Min Humidity, Max Sea Level PressureIn, Mean Sea Level PressureIn, Min Sea Level PressureIn, Max VisibilityMiles, Mean VisibilityMiles, Min VisibilityMiles, Max Wind SpeedMPH, Mean Wind SpeedMPH, Max Gust SpeedMPH,PrecipitationIn, CloudCover, Events, WindDirDegrees
2012-8-1,96,84,71,48,43,37,41,26,13,30.07,30.02,29.98,10,10,7,12,7,16,0.00,0,,129
2012-8-2,96,84,71,48,44,37,38,27,16,30.01,29.96,29.89,10,10,9,13,6,,0.00,0,,142
2012-8-3,95,83,71,54,48,39,47,31,20,29.90,29.86,29.80,10,10,8,13,7,,0.00,0,,148
2012-8-4,87,76,66,55,52,46,60,42,27,29.99,29.89,29.82,10,10,10,10,6,20,0.00,0,,164
2012-8-5,89,74,60,61,57,52,88,53,29,30.07,30.01,29.94,10,10,5,8,3,,0.01,0,,207
2012-8-6,91,80,68,54,44,34,60,32,13,30.13,30.09,30.06,10,10,10,9,6,,0.00,0,,174
2012-8-7,95,82,69,48,42,37,36,23,15,30.06,30.03,29.98,10,10,9,10,5,,0.00,0,,267
2012-8-8,96,80,64,52,45,41,43,28,16,30.02,29.98,29.94,10,10,9,10,5,,0.00,0,,282
2012-8-9,100,86,71,52,46,37,41,27,13,29.97,29.93,29.87,10,10,9,9,4,,0.00,0,,267
2012-8-10,100,88,75,50,43,37,32,23,12,29.88,29.84,29.78,10,10,9,10,5,,0.00,0,,135
2012-8-11,102,88,73,52,44,39,32,21,13,29.84,29.81,29.79,10,10,10,9,5,,0.00,0,,145
2012-8-12,100,88,77,54,45,32,36,23,10,29.88,29.85,29.82,10,10,8,10,6,,0.00,0,,147
2012-8-13,102,88,75,55,50,43,38,26,14,29.88,29.84,29.80,10,10,5,10,3,,0.00,0,,169
2012-8-14,100,88,75,55,52,43,47,30,20,29.84,29.81,29.77,10,10,7,10,6,,0.00,0,,146
2012-8-15,96,88,78,57,52,43,42,31,22,29.89,29.83,29.79,10,10,10,12,6,,0.00,0,,179
2012-8-16,95,84,73,57,53,48,50,36,25,29.96,29.91,29.89,10,10,8,10,5,,0.00,0,,192
2012-8-17,95,84,73,57,51,37,53,35,13,29.99,29.95,29.91,10,10,9,10,5,,2.00,0,,142
2012-8-18,96,84,71,63,50,41,73,32,15,29.98,29.93,29.89,10,10,9,9,4,,0.03,0,,165
2012-8-19,91,78,66,52,47,41,52,32,17,29.96,29.92,29.89,10,10,10,9,5,,0.00,0,,166
2012-8-20,93,81,69,52,46,41,40,30,19,29.94,29.90,29.86,10,10,10,8,4,,0.00,0,,160
2012-8-21,91,81,71,50,45,43,38,29,18,29.92,29.88,29.85,10,10,10,14,8,,0.00,0,,154
2012-8-22,91,78,64,55,46,39,50,32,21,29.92,29.89,29.87,10,9,5,9,6,,0.00,0,,176
2012-8-23,91,81,71,52,45,39,50,30,20,29.95,29.90,29.86,10,9,7,12,6,,0.00,0,,156
2012-8-24,91,76,62,48,44,39,48,30,18,29.91,29.88,29.84,10,10,9,10,5,,0.00,0,,189
2012-8-25,89,78,68,48,43,34,41,29,17,29.86,29.83,29.78,10,10,10,9,6,,0.00,0,,181
2012-8-26,80,68,55,48,44,37,77,43,26,29.97,29.91,29.82,10,10,10,12,8,,0.00,0,,166
2012-8-27,86,73,60,48,44,39,55,36,23,30.07,30.01,29.97,10,10,10,10,5,,0.00,0,,147
2012-8-28,89,76,64,48,41,32,46,29,17,30.05,30.00,29.96,10,10,10,12,5,,0.00,0,,148
2012-8-29,93,78,64,43,36,30,38,24,11,29.97,29.91,29.84,10,10,10,10,6,,0.00,0,,115
2012-8-30,91,80,69,43,38,32,29,22,15,29.85,29.82,29.77,10,10,10,9,6,,0.00,0,,162
2012-8-31,78,68,57,54,47,37,77,49,29,29.94,29.88,29.82,10,10,10,10,4,,0.00,0,,176